Hensley, Arkansas
Current Conditions -  °F | °C
As of 5:53 AM on Saturday 01 Nov 2014 (Local Time) from KLIT Reporting Station
Clear Clear  
Wind Chill: 29°   Ceiling: Unl
Heat Index: 35°   Visibility: 10mi
Dew Point: 22°   Wind: 7mph
Humidity: 59%   Direction: 330°NNW
Pressure: 30.44"   Gusts: NA
Location:  34.51°N, 92.21°W
Report Text: KLIT 011053Z 33006KT 10SM CLR 02/M06 A3044 RMK AO2 SLP311 T00171056
Loading
Personal Weather Stations






























Interactive Weather Map New forecast layout! Learn more

10-Day Weather Forecast

Advertisements
Track Severe Weather on mobile